LIPS

Istrana Air Base

Airport
ICAO code
LIPS
Summary
ICAO Region
EUR
ICAO Territory
Location

Istrana, Veneto

Serving
Istrana
Elevation
137 ft
Coordinates
45° 41' 4" N , 12° 5' 13" E
KCC
Metar
LIPS 240555Z 34003KT CAVOK 14/11 Q1018

Istrana Air Base is a military airport located in Istrana, Veneto, Italy.

Climatology

Humid subtropical climate (Köppen climate classification Cfa)

Runways

Designator Length Width Surface Rops
8/26 2992 32 ASP No/No

Airport map

Aerial View

SKYbrary Partners:

Safety knowledge contributed by: